createdAt,value
2023-03-28T00:00:08.242Z,656.00
2023-03-28T00:00:22.263Z,655.00
2023-03-28T00:00:36.295Z,654.00
2023-03-28T00:00:50.298Z,653.00
2023-03-28T00:01:18.518Z,652.00
2023-03-28T00:01:32.508Z,653.00
2023-03-28T00:01:46.489Z,652.00
2023-03-28T00:02:00.484Z,652.00
2023-03-28T00:02:28.451Z,653.00
2023-03-28T00:02:42.557Z,652.00
2023-03-28T00:02:56.622Z,651.00
2023-03-28T00:03:10.682Z,652.00
2023-03-28T00:03:38.718Z,652.00
2023-03-28T00:03:52.913Z,653.00
2023-03-28T00:04:07.051Z,652.00
2023-03-28T00:04:21.183Z,654.00
2023-03-28T00:04:49.175Z,654.00
2023-03-28T00:05:03.167Z,654.00
2023-03-28T00:05:17.251Z,653.00
2023-03-28T00:05:31.382Z,654.00
2023-03-28T00:05:59.662Z,654.00
2023-03-28T00:06:14.043Z,655.00
2023-03-28T00:06:28.303Z,654.00
2023-03-28T00:06:42.307Z,655.00
2023-03-28T00:07:10.326Z,654.00
2023-03-28T00:07:24.332Z,653.00
2023-03-28T00:07:38.321Z,654.00
2023-03-28T00:07:52.312Z,653.00
2023-03-28T00:08:20.270Z,653.00
2023-03-28T00:08:34.243Z,652.00
2023-03-28T00:08:48.347Z,653.00
2023-03-28T00:09:02.353Z,652.00
2023-03-28T00:09:30.325Z,652.00
2023-03-28T00:09:44.325Z,651.00
2023-03-28T00:09:58.327Z,652.00
2023-03-28T00:10:12.329Z,652.00
2023-03-28T00:10:40.300Z,653.00
2023-03-28T00:10:54.284Z,653.00
2023-03-28T00:11:08.275Z,653.00
2023-03-28T00:11:22.267Z,652.00
2023-03-28T00:11:36.255Z,652.00
2023-03-28T00:11:50.245Z,651.00
2023-03-28T00:12:04.238Z,652.00
2023-03-28T00:12:18.239Z,651.00
2023-03-28T00:12:32.336Z,652.00
2023-03-28T00:13:00.322Z,652.00
2023-03-28T00:13:14.441Z,652.00
2023-03-28T00:13:28.455Z,652.00
2023-03-28T00:13:42.438Z,652.00
2023-03-28T00:14:10.402Z,650.00
2023-03-28T00:14:24.397Z,650.00
2023-03-28T00:14:38.392Z,649.00
2023-03-28T00:14:52.384Z,649.00
2023-03-28T00:15:20.348Z,649.00
2023-03-28T00:15:34.339Z,648.00
2023-03-28T00:15:48.553Z,648.00
2023-03-28T00:16:02.876Z,647.00
2023-03-28T00:16:30.945Z,647.00
2023-03-28T00:16:44.958Z,648.00
2023-03-28T00:16:58.949Z,648.00
2023-03-28T00:17:12.940Z,648.00
2023-03-28T00:17:40.982Z,649.00
2023-03-28T00:17:55.053Z,649.00
2023-03-28T00:18:09.090Z,650.00
2023-03-28T00:18:23.083Z,651.00
2023-03-28T00:18:51.164Z,652.00
2023-03-28T00:19:05.219Z,651.00
2023-03-28T00:19:19.222Z,652.00
2023-03-28T00:19:33.227Z,652.00
2023-03-28T00:20:01.197Z,651.00
2023-03-28T00:20:15.188Z,651.00
2023-03-28T00:20:29.190Z,651.00
2023-03-28T00:20:43.200Z,651.00
2023-03-28T00:21:11.152Z,650.00
2023-03-28T00:21:25.137Z,650.00
2023-03-28T00:21:39.133Z,650.00
2023-03-28T00:21:53.124Z,650.00
2023-03-28T00:22:21.065Z,649.00
2023-03-28T00:22:35.046Z,649.00
2023-03-28T00:22:49.047Z,649.00
2023-03-28T00:23:03.053Z,648.00
2023-03-28T00:23:31.041Z,647.00
2023-03-28T00:23:45.019Z,647.00
2023-03-28T00:23:59.021Z,646.00
2023-03-28T00:24:13.013Z,646.00
2023-03-28T00:24:40.963Z,647.00
2023-03-28T00:24:54.952Z,647.00
2023-03-28T00:25:08.942Z,647.00
2023-03-28T00:25:22.945Z,647.00
2023-03-28T00:25:50.904Z,647.00
2023-03-28T00:26:04.885Z,646.00
2023-03-28T00:26:18.879Z,646.00
2023-03-28T00:26:32.877Z,646.00
2023-03-28T00:27:00.833Z,647.00
2023-03-28T00:27:14.829Z,647.00
2023-03-28T00:27:28.818Z,648.00
2023-03-28T00:27:42.825Z,648.00
2023-03-28T00:28:10.804Z,647.00
2023-03-28T00:28:24.792Z,647.00
2023-03-28T00:28:38.781Z,647.00
2023-03-28T00:28:52.766Z,646.00
2023-03-28T00:29:06.778Z,646.00
2023-03-28T00:29:21.079Z,647.00
2023-03-28T00:29:35.412Z,648.00
2023-03-28T00:29:49.394Z,649.00
2023-03-28T00:30:03.402Z,649.00
2023-03-28T00:30:31.375Z,648.00
2023-03-28T00:30:45.347Z,648.00
2023-03-28T00:30:59.383Z,647.00
2023-03-28T00:31:13.412Z,648.00
2023-03-28T00:31:41.387Z,648.00
2023-03-28T00:31:55.371Z,648.00
2023-03-28T00:32:09.350Z,648.00
2023-03-28T00:32:23.388Z,647.00
2023-03-28T00:32:51.406Z,647.00
2023-03-28T00:33:05.547Z,646.00
2023-03-28T00:33:19.618Z,646.00
2023-03-28T00:33:33.609Z,646.00
2023-03-28T00:34:01.605Z,646.00
2023-03-28T00:34:15.619Z,646.00
2023-03-28T00:34:29.611Z,646.00
2023-03-28T00:34:43.600Z,645.00
2023-03-28T00:35:11.573Z,645.00
2023-03-28T00:35:25.584Z,644.00
2023-03-28T00:35:39.675Z,644.00
2023-03-28T00:35:53.719Z,643.00
2023-03-28T00:36:21.729Z,643.00
2023-03-28T00:36:35.708Z,643.00
2023-03-28T00:36:49.699Z,643.00
2023-03-28T00:37:03.692Z,643.00
2023-03-28T00:37:31.667Z,643.00
2023-03-28T00:37:45.872Z,644.00
2023-03-28T00:37:59.852Z,644.00
2023-03-28T00:38:13.927Z,643.00
2023-03-28T00:38:41.911Z,643.00
2023-03-28T00:38:55.890Z,643.00
2023-03-28T00:39:09.871Z,644.00
2023-03-28T00:39:23.877Z,644.00
2023-03-28T00:39:51.823Z,642.00
2023-03-28T00:40:05.834Z,642.00
2023-03-28T00:40:19.812Z,641.00
2023-03-28T00:40:33.807Z,641.00
2023-03-28T00:41:01.766Z,641.00
2023-03-28T00:41:15.765Z,640.00
2023-03-28T00:41:29.750Z,640.00
2023-03-28T00:41:43.758Z,639.00
2023-03-28T00:42:11.743Z,639.00
2023-03-28T00:42:25.737Z,639.00
2023-03-28T00:42:39.716Z,639.00
2023-03-28T00:42:53.722Z,639.00
2023-03-28T00:43:21.712Z,638.00
2023-03-28T00:43:35.704Z,638.00
2023-03-28T00:43:49.696Z,638.00
2023-03-28T00:44:03.686Z,638.00
2023-03-28T00:44:31.652Z,638.00
2023-03-28T00:44:45.665Z,639.00
2023-03-28T00:44:59.684Z,638.00
2023-03-28T00:45:13.677Z,639.00
2023-03-28T00:45:41.622Z,638.00
2023-03-28T00:46:06.520Z,637.00
2023-03-28T00:46:09.636Z,638.00
2023-03-28T00:46:23.756Z,638.00
2023-03-28T00:46:51.803Z,637.00
2023-03-28T00:47:05.854Z,637.00
2023-03-28T00:47:19.878Z,637.00
2023-03-28T00:47:33.915Z,638.00
2023-03-28T00:48:01.985Z,638.00
2023-03-28T00:48:16.091Z,638.00
2023-03-28T00:48:30.096Z,639.00
2023-03-28T00:48:44.089Z,639.00
2023-03-28T00:49:12.046Z,639.00
2023-03-28T00:49:26.051Z,639.00
2023-03-28T00:49:40.214Z,638.00
2023-03-28T00:49:54.208Z,639.00
2023-03-28T00:50:22.219Z,641.00
2023-03-28T00:50:36.214Z,641.00
2023-03-28T00:50:50.217Z,640.00
2023-03-28T00:51:04.197Z,640.00
2023-03-28T00:51:32.226Z,639.00
2023-03-28T00:51:46.252Z,640.00
2023-03-28T00:52:00.234Z,640.00
2023-03-28T00:52:14.232Z,640.00
2023-03-28T00:52:42.189Z,640.00
2023-03-28T00:52:56.162Z,639.00
2023-03-28T00:53:10.152Z,639.00
2023-03-28T00:53:24.143Z,639.00
2023-03-28T00:53:52.112Z,640.00
2023-03-28T00:54:06.105Z,640.00
2023-03-28T00:54:20.135Z,641.00
2023-03-28T00:54:34.142Z,641.00
2023-03-28T00:55:02.119Z,640.00
2023-03-28T00:55:16.140Z,639.00
2023-03-28T00:55:30.147Z,639.00
2023-03-28T00:55:44.149Z,637.00
2023-03-28T00:56:12.122Z,638.00
2023-03-28T00:56:26.106Z,638.00
2023-03-28T00:56:40.114Z,638.00
2023-03-28T00:56:54.165Z,638.00
2023-03-28T00:57:22.144Z,637.00
2023-03-28T00:57:36.129Z,636.00
2023-03-28T00:57:50.146Z,635.00
2023-03-28T00:58:04.146Z,635.00
2023-03-28T00:58:32.173Z,635.00
2023-03-28T00:58:46.181Z,635.00
2023-03-28T00:59:00.159Z,635.00
2023-03-28T00:59:14.153Z,635.00
2023-03-28T00:59:28.153Z,635.00
2023-03-28T00:59:42.176Z,636.00
2023-03-28T00:59:56.171Z,636.00
2023-03-28T01:00:10.164Z,635.00
2023-03-28T01:00:24.198Z,636.00
2023-03-28T01:00:52.184Z,637.00
2023-03-28T01:01:06.219Z,637.00
2023-03-28T01:01:20.323Z,637.00
2023-03-28T01:01:34.399Z,638.00
2023-03-28T01:02:02.428Z,639.00
2023-03-28T01:02:16.534Z,638.00
2023-03-28T01:02:30.620Z,638.00
2023-03-28T01:02:44.765Z,638.00
2023-03-28T01:03:12.884Z,638.00
2023-03-28T01:03:27.122Z,638.00
2023-03-28T01:03:41.374Z,638.00
2023-03-28T01:03:55.508Z,638.00
2023-03-28T01:04:23.488Z,637.00
2023-03-28T01:04:37.474Z,638.00
2023-03-28T01:04:51.465Z,637.00
2023-03-28T01:05:05.458Z,637.00
2023-03-28T01:05:33.462Z,638.00
2023-03-28T01:05:47.446Z,638.00
2023-03-28T01:06:01.656Z,639.00
2023-03-28T01:06:15.786Z,639.00
2023-03-28T01:06:43.759Z,639.00
2023-03-28T01:06:57.766Z,639.00
2023-03-28T01:07:11.755Z,639.00
2023-03-28T01:07:25.744Z,639.00
2023-03-28T01:07:39.744Z,639.00
2023-03-28T01:07:53.728Z,639.00
2023-03-28T01:08:07.713Z,641.00
2023-03-28T01:08:21.725Z,640.00
2023-03-28T01:08:35.723Z,640.00
2023-03-28T01:09:03.669Z,641.00
2023-03-28T01:09:17.662Z,641.00
2023-03-28T01:09:31.652Z,642.00
2023-03-28T01:09:45.641Z,642.00
2023-03-28T01:10:13.612Z,643.00
2023-03-28T01:10:27.644Z,642.00
2023-03-28T01:10:41.630Z,642.00
2023-03-28T01:10:55.640Z,642.00
2023-03-28T01:11:23.598Z,640.00
2023-03-28T01:11:37.590Z,641.00
2023-03-28T01:11:51.610Z,640.00
2023-03-28T01:12:05.603Z,640.00
2023-03-28T01:12:33.614Z,639.00
2023-03-28T01:12:47.613Z,639.00
2023-03-28T01:13:01.621Z,639.00
2023-03-28T01:13:15.658Z,639.00
2023-03-28T01:13:43.621Z,638.00
2023-03-28T01:13:57.612Z,638.00
2023-03-28T01:14:11.652Z,638.00
2023-03-28T01:14:25.650Z,637.00
2023-03-28T01:14:53.634Z,637.00
2023-03-28T01:15:07.758Z,637.00
2023-03-28T01:15:21.780Z,638.00
2023-03-28T01:15:35.892Z,638.00
2023-03-28T01:16:04.135Z,637.00
2023-03-28T01:16:18.219Z,637.00
2023-03-28T01:16:32.364Z,636.00
2023-03-28T01:16:46.367Z,637.00
2023-03-28T01:17:14.317Z,638.00
2023-03-28T01:17:28.369Z,637.00
2023-03-28T01:17:42.401Z,638.00
2023-03-28T01:17:56.418Z,637.00
2023-03-28T01:18:24.402Z,638.00
2023-03-28T01:18:38.401Z,637.00
2023-03-28T01:18:52.405Z,637.00
2023-03-28T01:19:06.398Z,637.00
2023-03-28T01:19:34.848Z,636.00
2023-03-28T01:19:48.832Z,635.00
2023-03-28T01:20:02.822Z,635.00
2023-03-28T01:20:16.805Z,636.00
2023-03-28T01:20:44.827Z,635.00
2023-03-28T01:20:58.813Z,635.00
2023-03-28T01:21:12.821Z,634.00
2023-03-28T01:21:26.822Z,633.00
2023-03-28T01:21:54.779Z,633.00
2023-03-28T01:22:08.775Z,633.00
2023-03-28T01:22:22.766Z,633.00
2023-03-28T01:22:36.761Z,632.00
2023-03-28T01:23:04.710Z,632.00
2023-03-28T01:23:18.706Z,632.00
2023-03-28T01:23:32.700Z,631.00
2023-03-28T01:23:46.693Z,631.00
2023-03-28T01:24:14.654Z,631.00
2023-03-28T01:24:28.654Z,630.00
2023-03-28T01:24:42.651Z,630.00
2023-03-28T01:24:56.645Z,631.00
2023-03-28T01:25:24.629Z,632.00
2023-03-28T01:25:38.630Z,631.00
2023-03-28T01:25:52.629Z,631.00
2023-03-28T01:26:06.636Z,631.00
2023-03-28T01:26:34.624Z,631.00
2023-03-28T01:26:48.618Z,631.00
2023-03-28T01:27:02.633Z,631.00
2023-03-28T01:27:16.623Z,632.00
2023-03-28T01:27:44.578Z,632.00
2023-03-28T01:27:58.565Z,632.00
2023-03-28T01:28:12.544Z,632.00
2023-03-28T01:28:26.531Z,632.00
2023-03-28T01:28:54.499Z,631.00
2023-03-28T01:29:08.491Z,630.00
2023-03-28T01:29:22.490Z,631.00
2023-03-28T01:29:36.477Z,630.00
2023-03-28T01:30:04.423Z,630.00
2023-03-28T01:30:18.417Z,630.00
2023-03-28T01:30:32.474Z,630.00
2023-03-28T01:30:46.470Z,631.00
2023-03-28T01:31:14.482Z,631.00
2023-03-28T01:31:28.500Z,632.00
2023-03-28T01:31:42.524Z,631.00
2023-03-28T01:31:56.640Z,631.00
2023-03-28T01:32:24.694Z,630.00
2023-03-28T01:32:38.747Z,630.00
2023-03-28T01:32:52.874Z,630.00
2023-03-28T01:33:06.941Z,630.00
2023-03-28T01:33:34.950Z,629.00
2023-03-28T01:33:48.938Z,629.00
2023-03-28T01:34:02.979Z,628.00
2023-03-28T01:34:16.983Z,628.00
2023-03-28T01:34:44.925Z,626.00
2023-03-28T01:34:58.933Z,625.00
2023-03-28T01:35:12.930Z,625.00
2023-03-28T01:35:26.946Z,625.00
2023-03-28T01:35:54.979Z,625.00
2023-03-28T01:36:08.978Z,624.00
2023-03-28T01:36:34.095Z,624.00
2023-03-28T01:36:36.749Z,625.00
2023-03-28T01:37:04.709Z,624.00
2023-03-28T01:37:18.717Z,624.00
2023-03-28T01:37:32.717Z,625.00
2023-03-28T01:37:46.708Z,627.00
2023-03-28T01:38:00.712Z,628.00
2023-03-28T01:38:14.724Z,627.00
2023-03-28T01:38:28.742Z,627.00
2023-03-28T01:38:42.761Z,628.00
2023-03-28T01:38:56.747Z,629.00
2023-03-28T01:39:24.846Z,628.00
2023-03-28T01:39:38.852Z,629.00
2023-03-28T01:39:52.845Z,629.00
2023-03-28T01:40:06.860Z,630.00
2023-03-28T01:40:34.839Z,630.00
2023-03-28T01:40:48.830Z,629.00
2023-03-28T01:41:02.809Z,629.00
2023-03-28T01:41:16.800Z,630.00
2023-03-28T01:41:44.752Z,630.00
2023-03-28T01:41:58.746Z,629.00
2023-03-28T01:42:12.740Z,629.00
2023-03-28T01:42:26.762Z,629.00
2023-03-28T01:42:54.726Z,629.00
2023-03-28T01:43:08.718Z,629.00
2023-03-28T01:43:22.705Z,629.00
2023-03-28T01:43:36.716Z,628.00
2023-03-28T01:44:04.667Z,628.00
2023-03-28T01:44:18.665Z,627.00
2023-03-28T01:44:32.644Z,627.00
2023-03-28T01:44:46.646Z,626.00
2023-03-28T01:45:14.624Z,626.00
2023-03-28T01:45:28.718Z,627.00
2023-03-28T01:45:42.785Z,627.00
2023-03-28T01:45:56.910Z,627.00
2023-03-28T01:46:25.005Z,626.00
2023-03-28T01:46:39.041Z,625.00
2023-03-28T01:46:53.023Z,624.00
2023-03-28T01:47:07.021Z,624.00
2023-03-28T01:47:35.018Z,622.00
2023-03-28T01:47:49.043Z,622.00
2023-03-28T01:48:03.086Z,622.00
2023-03-28T01:48:17.124Z,622.00
2023-03-28T01:48:45.138Z,621.00
2023-03-28T01:48:59.132Z,622.00
2023-03-28T01:49:13.131Z,621.00
2023-03-28T01:49:27.138Z,621.00
2023-03-28T01:49:55.080Z,623.00
2023-03-28T01:50:09.097Z,623.00
2023-03-28T01:50:23.082Z,623.00
2023-03-28T01:50:37.082Z,622.00
2023-03-28T01:50:51.070Z,622.00
2023-03-28T01:51:05.095Z,621.00
2023-03-28T01:51:19.109Z,621.00
2023-03-28T01:51:33.101Z,620.00
2023-03-28T01:51:47.099Z,620.00
2023-03-28T01:52:15.054Z,619.00
2023-03-28T01:52:29.037Z,620.00
2023-03-28T01:52:43.030Z,619.00
2023-03-28T01:52:57.024Z,619.00
2023-03-28T01:53:24.985Z,619.00
2023-03-28T01:53:38.981Z,618.00
2023-03-28T01:53:52.976Z,619.00
2023-03-28T01:54:06.968Z,619.00
2023-03-28T01:54:34.913Z,620.00
2023-03-28T01:54:48.900Z,619.00
2023-03-28T01:55:02.901Z,618.00
2023-03-28T01:55:16.875Z,617.00
2023-03-28T01:55:44.849Z,617.00
2023-03-28T01:55:59.040Z,616.00
2023-03-28T01:56:13.233Z,616.00
2023-03-28T01:56:27.289Z,616.00
2023-03-28T01:56:55.376Z,616.00
2023-03-28T01:57:09.520Z,616.00
2023-03-28T01:57:23.662Z,616.00
2023-03-28T01:57:37.838Z,617.00
2023-03-28T01:58:05.841Z,617.00
2023-03-28T01:58:19.831Z,618.00
2023-03-28T01:58:33.830Z,618.00
2023-03-28T01:58:47.808Z,619.00
2023-03-28T01:59:15.763Z,618.00
2023-03-28T01:59:29.761Z,618.00
2023-03-28T01:59:43.744Z,619.00
2023-03-28T01:59:57.734Z,618.00
2023-03-28T02:00:25.697Z,617.00
2023-03-28T02:00:39.817Z,616.00
2023-03-28T02:00:53.855Z,617.00
2023-03-28T02:01:07.871Z,617.00
2023-03-28T02:01:35.965Z,615.00
2023-03-28T02:01:50.056Z,615.00
2023-03-28T02:02:04.133Z,615.00
2023-03-28T02:02:18.213Z,615.00
2023-03-28T02:02:46.285Z,615.00
2023-03-28T02:03:00.519Z,614.00
2023-03-28T02:03:14.725Z,614.00
2023-03-28T02:03:28.905Z,614.00
2023-03-28T02:03:42.975Z,614.00
2023-03-28T02:03:56.999Z,613.00
2023-03-28T02:04:20.377Z,614.00
2023-03-28T02:04:24.800Z,614.00
2023-03-28T02:04:38.805Z,613.00
2023-03-28T02:05:06.776Z,614.00
2023-03-28T02:05:20.772Z,614.00
2023-03-28T02:05:34.764Z,613.00
2023-03-28T02:05:48.763Z,613.00
2023-03-28T02:06:16.756Z,612.00
2023-03-28T02:06:30.744Z,612.00
2023-03-28T02:06:44.728Z,612.00
2023-03-28T02:06:58.724Z,611.00
2023-03-28T02:07:26.694Z,612.00
2023-03-28T02:07:40.684Z,613.00
2023-03-28T02:07:54.698Z,613.00
2023-03-28T02:08:08.714Z,612.00
2023-03-28T02:08:36.683Z,613.00
2023-03-28T02:08:50.679Z,612.00
2023-03-28T02:09:04.663Z,611.00
2023-03-28T02:09:18.652Z,611.00
2023-03-28T02:09:46.613Z,610.00
2023-03-28T02:10:00.614Z,610.00
2023-03-28T02:10:14.599Z,610.00
2023-03-28T02:10:28.606Z,610.00
2023-03-28T02:10:56.597Z,609.00
2023-03-28T02:11:10.574Z,609.00
2023-03-28T02:11:24.563Z,608.00
2023-03-28T02:11:38.550Z,608.00
2023-03-28T02:12:06.505Z,608.00
2023-03-28T02:12:20.501Z,609.00
2023-03-28T02:12:34.515Z,608.00
2023-03-28T02:12:48.513Z,608.00
2023-03-28T02:13:16.470Z,608.00
2023-03-28T02:13:30.463Z,610.00
2023-03-28T02:13:44.450Z,610.00
2023-03-28T02:13:58.447Z,611.00
2023-03-28T02:14:26.425Z,610.00
2023-03-28T02:14:40.454Z,609.00
2023-03-28T02:14:54.452Z,609.00
2023-03-28T02:15:08.458Z,609.00
2023-03-28T02:15:36.415Z,608.00
2023-03-28T02:15:50.409Z,608.00
2023-03-28T02:16:04.418Z,609.00
2023-03-28T02:16:18.550Z,609.00
2023-03-28T02:16:46.557Z,610.00
2023-03-28T02:17:00.639Z,610.00
2023-03-28T02:17:14.634Z,610.00
2023-03-28T02:17:28.657Z,609.00
2023-03-28T02:17:56.719Z,609.00
2023-03-28T02:18:10.756Z,610.00
2023-03-28T02:18:24.745Z,610.00
2023-03-28T02:18:38.747Z,610.00
2023-03-28T02:19:06.696Z,611.00
2023-03-28T02:19:20.686Z,612.00
2023-03-28T02:19:34.683Z,611.00
2023-03-28T02:19:48.695Z,611.00
2023-03-28T02:20:16.668Z,612.00
2023-03-28T02:20:30.698Z,612.00
2023-03-28T02:20:44.696Z,611.00
2023-03-28T02:20:58.704Z,612.00
2023-03-28T02:21:26.684Z,614.00
2023-03-28T02:21:40.674Z,614.00
2023-03-28T02:21:54.665Z,614.00
2023-03-28T02:22:08.650Z,614.00
2023-03-28T02:22:36.617Z,613.00
2023-03-28T02:22:50.620Z,613.00
2023-03-28T02:23:04.617Z,613.00
2023-03-28T02:23:18.603Z,613.00
2023-03-28T02:23:46.592Z,612.00
2023-03-28T02:24:00.595Z,613.00
2023-03-28T02:24:14.629Z,612.00
2023-03-28T02:24:28.626Z,612.00
2023-03-28T02:24:56.594Z,611.00
2023-03-28T02:25:10.595Z,612.00
2023-03-28T02:25:24.582Z,612.00
2023-03-28T02:25:38.589Z,611.00
2023-03-28T02:26:06.559Z,611.00
2023-03-28T02:26:20.540Z,611.00
2023-03-28T02:26:34.541Z,612.00
2023-03-28T02:26:48.537Z,614.00
2023-03-28T02:27:16.521Z,612.00
2023-03-28T02:27:30.516Z,611.00
2023-03-28T02:27:44.504Z,612.00
2023-03-28T02:27:58.542Z,612.00
2023-03-28T02:28:26.520Z,612.00
2023-03-28T02:28:40.503Z,611.00
2023-03-28T02:28:54.496Z,612.00
2023-03-28T02:29:08.483Z,611.00
2023-03-28T02:29:36.443Z,611.00
2023-03-28T02:29:50.436Z,611.00
2023-03-28T02:30:04.409Z,612.00
2023-03-28T02:30:18.405Z,613.00
2023-03-28T02:30:46.366Z,613.00
2023-03-28T02:31:00.351Z,612.00
2023-03-28T02:31:14.406Z,611.00
2023-03-28T02:31:28.503Z,611.00
2023-03-28T02:31:56.517Z,609.00
2023-03-28T02:32:10.521Z,609.00
2023-03-28T02:32:24.594Z,609.00
2023-03-28T02:32:38.618Z,610.00
2023-03-28T02:33:06.641Z,610.00
2023-03-28T02:33:20.629Z,609.00
2023-03-28T02:33:34.618Z,610.00
2023-03-28T02:33:48.603Z,610.00
2023-03-28T02:34:02.606Z,610.00
2023-03-28T02:34:16.607Z,611.00
2023-03-28T02:34:30.610Z,611.00
2023-03-28T02:34:44.594Z,611.00
2023-03-28T02:34:58.599Z,611.00
2023-03-28T02:35:26.589Z,612.00
2023-03-28T02:35:40.686Z,612.00
2023-03-28T02:35:54.709Z,612.00
2023-03-28T02:36:08.692Z,612.00
2023-03-28T02:36:36.675Z,611.00
2023-03-28T02:36:50.668Z,610.00
2023-03-28T02:37:04.667Z,609.00
2023-03-28T02:37:18.707Z,609.00
2023-03-28T02:37:46.674Z,608.00
2023-03-28T02:38:00.657Z,607.00
2023-03-28T02:38:14.662Z,607.00
2023-03-28T02:38:28.640Z,607.00
2023-03-28T02:38:56.594Z,608.00
2023-03-28T02:39:10.586Z,608.00
2023-03-28T02:39:24.567Z,608.00
2023-03-28T02:39:38.559Z,607.00
2023-03-28T02:40:06.510Z,608.00
2023-03-28T02:40:20.493Z,607.00
2023-03-28T02:40:34.504Z,606.00
2023-03-28T02:40:48.525Z,606.00
2023-03-28T02:41:16.512Z,604.00
2023-03-28T02:41:30.502Z,604.00
2023-03-28T02:41:44.487Z,604.00
2023-03-28T02:41:58.479Z,605.00
2023-03-28T02:42:26.448Z,604.00
2023-03-28T02:42:40.433Z,604.00
2023-03-28T02:42:54.436Z,603.00
2023-03-28T02:43:08.432Z,604.00
2023-03-28T02:43:36.374Z,604.00
2023-03-28T02:43:50.358Z,604.00
2023-03-28T02:44:04.381Z,604.00
2023-03-28T02:44:20.912Z,604.00
2023-03-28T02:44:46.762Z,604.00
2023-03-28T02:45:00.749Z,604.00
2023-03-28T02:45:14.762Z,604.00
2023-03-28T02:45:28.744Z,604.00
2023-03-28T02:45:56.831Z,605.00
2023-03-28T02:46:10.914Z,605.00
2023-03-28T02:46:24.964Z,606.00
2023-03-28T02:46:39.030Z,606.00
2023-03-28T02:46:53.089Z,607.00
2023-03-28T02:47:07.075Z,606.00
2023-03-28T02:47:21.068Z,606.00
2023-03-28T02:47:35.065Z,606.00
2023-03-28T02:47:49.129Z,606.00
2023-03-28T02:48:17.119Z,606.00
2023-03-28T02:48:31.128Z,606.00
2023-03-28T02:48:45.140Z,606.00
2023-03-28T02:48:59.129Z,606.00
2023-03-28T02:49:27.068Z,606.00
2023-03-28T02:49:54.861Z,605.00
2023-03-28T02:50:08.865Z,604.00
2023-03-28T02:50:36.856Z,605.00
2023-03-28T02:50:50.845Z,605.00
2023-03-28T02:51:04.848Z,605.00
2023-03-28T02:51:18.845Z,605.00
2023-03-28T02:51:46.810Z,606.00
2023-03-28T02:52:00.796Z,606.00
2023-03-28T02:52:14.784Z,606.00
2023-03-28T02:52:28.776Z,607.00
2023-03-28T02:52:56.764Z,607.00
2023-03-28T02:53:10.756Z,607.00
2023-03-28T02:53:24.747Z,607.00
2023-03-28T02:53:38.747Z,607.00
2023-03-28T02:54:06.736Z,607.00
2023-03-28T02:54:20.723Z,607.00
2023-03-28T02:54:34.709Z,606.00
2023-03-28T02:54:48.717Z,607.00
2023-03-28T02:55:16.678Z,605.00
2023-03-28T02:55:30.659Z,605.00
2023-03-28T02:55:44.660Z,606.00
2023-03-28T02:55:58.866Z,606.00
2023-03-28T02:56:27.005Z,606.00
2023-03-28T02:56:41.010Z,606.00
2023-03-28T02:56:55.026Z,606.00
2023-03-28T02:57:09.081Z,605.00
2023-03-28T02:57:37.143Z,605.00
2023-03-28T02:57:51.131Z,606.00
2023-03-28T02:58:05.123Z,606.00
2023-03-28T02:58:19.101Z,607.00
2023-03-28T02:58:47.059Z,606.00
2023-03-28T02:59:01.054Z,607.00
2023-03-28T02:59:15.038Z,607.00
2023-03-28T02:59:29.031Z,607.00
2023-03-28T02:59:56.985Z,607.00
2023-03-28T03:00:10.977Z,606.00
2023-03-28T03:00:24.968Z,607.00
2023-03-28T03:00:39.000Z,608.00
2023-03-28T03:01:07.002Z,609.00
2023-03-28T03:01:21.037Z,609.00
2023-03-28T03:01:35.119Z,610.00
2023-03-28T03:01:49.162Z,609.00
2023-03-28T03:02:17.129Z,610.00
2023-03-28T03:02:31.156Z,610.00
2023-03-28T03:02:45.179Z,610.00
2023-03-28T03:02:59.238Z,610.00
2023-03-28T03:03:27.264Z,610.00
2023-03-28T03:03:41.282Z,609.00
2023-03-28T03:03:57.894Z,609.00
2023-03-28T03:04:09.756Z,609.00
2023-03-28T03:04:37.772Z,608.00
2023-03-28T03:04:51.792Z,607.00
2023-03-28T03:05:05.797Z,606.00
2023-03-28T03:05:19.785Z,606.00
2023-03-28T03:05:47.791Z,606.00
2023-03-28T03:06:01.946Z,605.00
2023-03-28T03:06:16.147Z,606.00
2023-03-28T03:06:30.158Z,605.00
2023-03-28T03:06:58.169Z,604.00
2023-03-28T03:07:12.159Z,603.00
2023-03-28T03:07:26.160Z,604.00
2023-03-28T03:07:40.142Z,603.00
2023-03-28T03:08:08.114Z,603.00
2023-03-28T03:08:22.123Z,603.00
2023-03-28T03:08:36.128Z,603.00
2023-03-28T03:08:50.134Z,604.00
2023-03-28T03:09:18.086Z,603.00
2023-03-28T03:09:32.072Z,603.00
2023-03-28T03:09:46.063Z,602.00
2023-03-28T03:10:00.046Z,603.00
2023-03-28T03:10:27.999Z,603.00
2023-03-28T03:10:41.985Z,603.00
2023-03-28T03:10:56.017Z,603.00
2023-03-28T03:11:10.062Z,603.00
2023-03-28T03:11:38.024Z,602.00
2023-03-28T03:11:52.033Z,603.00
2023-03-28T03:12:06.032Z,602.00
2023-03-28T03:12:20.044Z,602.00
2023-03-28T03:12:48.003Z,602.00
2023-03-28T03:13:02.012Z,602.00
2023-03-28T03:13:16.016Z,602.00
2023-03-28T03:13:30.023Z,601.00
2023-03-28T03:13:57.975Z,603.00
2023-03-28T03:14:11.969Z,602.00
2023-03-28T03:14:25.965Z,601.00
2023-03-28T03:14:39.952Z,601.00
2023-03-28T03:15:07.899Z,600.00
2023-03-28T03:15:21.892Z,600.00
2023-03-28T03:15:35.965Z,600.00
2023-03-28T03:15:50.012Z,600.00
2023-03-28T03:16:18.039Z,602.00
2023-03-28T03:16:32.114Z,601.00
2023-03-28T03:16:46.127Z,601.00
2023-03-28T03:17:00.158Z,601.00
2023-03-28T03:17:14.163Z,601.00
2023-03-28T03:17:28.161Z,600.00
2023-03-28T03:17:42.228Z,601.00
2023-03-28T03:17:56.325Z,601.00
2023-03-28T03:18:10.375Z,600.00
2023-03-28T03:18:38.366Z,600.00
2023-03-28T03:18:52.375Z,599.00
2023-03-28T03:19:06.358Z,599.00
2023-03-28T03:19:20.345Z,599.00
2023-03-28T03:19:48.275Z,600.00
2023-03-28T03:20:02.279Z,599.00
2023-03-28T03:20:16.278Z,599.00
2023-03-28T03:20:30.266Z,599.00
2023-03-28T03:20:58.244Z,600.00
2023-03-28T03:21:12.239Z,599.00
2023-03-28T03:21:26.223Z,599.00
2023-03-28T03:21:40.207Z,599.00
2023-03-28T03:22:08.184Z,600.00
2023-03-28T03:22:22.176Z,599.00
2023-03-28T03:22:36.172Z,599.00
2023-03-28T03:22:50.151Z,599.00
2023-03-28T03:23:18.116Z,598.00
2023-03-28T03:23:32.091Z,598.00
2023-03-28T03:23:46.074Z,597.00
2023-03-28T03:24:00.072Z,597.00
2023-03-28T03:24:28.039Z,596.00
2023-03-28T03:24:42.037Z,595.00
2023-03-28T03:24:56.020Z,594.00
2023-03-28T03:25:11.447Z,594.00
2023-03-28T03:25:37.808Z,595.00
2023-03-28T03:25:51.863Z,595.00
2023-03-28T03:26:05.885Z,593.00
2023-03-28T03:26:19.889Z,593.00
2023-03-28T03:26:47.874Z,591.00
2023-03-28T03:27:01.876Z,591.00
2023-03-28T03:27:15.862Z,591.00
2023-03-28T03:27:29.858Z,591.00
2023-03-28T03:27:57.886Z,590.00
2023-03-28T03:28:11.932Z,590.00
2023-03-28T03:28:25.939Z,590.00
2023-03-28T03:28:39.924Z,590.00
2023-03-28T03:29:07.875Z,590.00
2023-03-28T03:29:21.868Z,590.00
2023-03-28T03:29:38.497Z,589.00
2023-03-28T03:29:50.507Z,589.00
2023-03-28T03:30:04.510Z,588.00
2023-03-28T03:30:18.505Z,589.00
2023-03-28T03:30:32.499Z,590.00
2023-03-28T03:30:46.483Z,591.00
2023-03-28T03:31:00.488Z,591.00
2023-03-28T03:31:28.471Z,589.00
2023-03-28T03:31:42.474Z,588.00
2023-03-28T03:31:56.482Z,588.00
2023-03-28T03:32:10.466Z,587.00
2023-03-28T03:32:38.531Z,589.00
2023-03-28T03:32:52.659Z,589.00
2023-03-28T03:33:06.839Z,588.00
2023-03-28T03:33:20.881Z,588.00
2023-03-28T03:33:48.868Z,588.00
2023-03-28T03:34:02.861Z,588.00
2023-03-28T03:34:16.862Z,589.00
2023-03-28T03:34:30.868Z,589.00
2023-03-28T03:34:58.849Z,589.00
2023-03-28T03:35:12.848Z,589.00
2023-03-28T03:35:26.876Z,590.00